Historyczne dane pomiarowe

Dodano dane terminowe – wersja testowa.

Dane z okresu 1951-2019

Wersja bazy: 1.34 [2019-03-16, lista zmian], aktualizacja planowana na 2019-04-15

Dane meteo z obszaru Polski uzyskane na podstawie danych udostępnionych przez Instytut Meteorologii i Gospodarki Wodnej – Państwowy Instytut Badawczy.

 

Wybierz Datę:    

       

TemperaturaWilgotnośćWiatrCiśnienieOpadyŚniegCzas trwania zjawisk
 Stacja t tx tn tng RH VA  wxwx mslp ppp RRR   cm mm wxwxwxwxwxwxwx
2019-07-25 23.4 30.2 17.6 15.6-- 2.0----- 0.0------------
2019-07-24 22.4 27.8 18.3 17.7-- 6.7----- 0.0------------
2019-07-23 19.0 22.8 16.2 16.2-- 8.0----- 0.2------------
2019-07-22 19.4 25.2 14.0 11.3-- 6.0----- 0.0------------
2019-07-21 22.1 28.1 17.7 14.7-- 5.7----- 0.0------------
2019-07-20 22.2 29.8 15.9 14.2-- 4.7----- 0.7------------
2019-07-19 20.7 29.3 10.6 8.3-- 5.0----- 0.0------------
2019-07-18 17.7 25.0 8.3 5.9-- 0.0----- 0.0------------
2019-07-17 16.5 22.2 11.6 10.3-- 2.7----- 0.0------------
2019-07-16 15.7 21.3 11.9 9.3-- 6.7----- 1.2------------
2019-07-15 16.6 24.7 8.8 6.0-- 3.0----- 0.0------------
2019-07-14 17.3 24.4 12.8 12.7-- 3.0----- 0.0------------
2019-07-13 17.0 22.3 14.3 14.3-- 5.0----- 3.7------------
2019-07-12 19.2 26.8 10.3 7.7-- 3.3----- 2.2------------
2019-07-11 16.4 23.4 8.8 7.0-- 3.3----- 0.0------------
2019-07-10 16.2 21.8 11.8 10.4-- 5.7----- 1.6------------
2019-07-09 14.7 21.3 10.3 8.3-- 6.0----- 2.1------------
2019-07-08 14.6 18.7 10.8 10.5-- 5.7----- 0.0------------
2019-07-07 15.3 19.4 12.3 12.0-- 3.7----- 0.7------------
2019-07-06 15.8 19.7 11.7 9.2-- 8.0----- 3.1------------
2019-07-05 16.0 20.3 14.1 14.2-- 7.7----- 0.4------------
2019-07-04 14.9 20.8 8.8 5.9-- 6.7----- 0.1------------
2019-07-03 14.8 20.3 10.1 7.9-- 5.0----- 0.3------------
2019-07-02 18.1 23.5 13.0 11.3-- 1.0----- 0.0------------
2019-07-01 23.2 32.6 17.5 16.6-- 3.3----- 3.2------------
2019-06-30 27.1 36.7 15.1 12.3-- 0.0----- 0.0------------
2019-06-29 19.4 29.3 10.6 8.8-- 0.0----- 0.0------------
2019-06-28 17.6 25.0 11.4 9.3-- 2.7----- 0.0------------
2019-06-27 20.6 30.8 16.3 15.7-- 3.7----- 0.0------------
2019-06-26 28.3 37.2 19.3 17.6-- 2.7----- 3.3------------
2019-06-25 22.9 31.4 13.3 11.8-- 0.0----- 0.0------------
2019-06-24 19.6 27.9 10.9 9.5-- 0.0----- 0.0------------
2019-06-23 17.7 24.8 11.3 9.8-- 0.0----- 0.0------------
2019-06-22 17.8 24.6 12.1 10.8-- 1.0----- 0.0------------
2019-06-21 20.1 25.4 16.0 15.7-- 8.0----- 1.6------------
2019-06-20 22.2 32.8 17.2 16.2-- 3.3----- 0.5------------
2019-06-19 23.0 30.1 15.4 13.3-- 1.0----- 0.0------------
2019-06-18 19.7 26.3 12.6 10.8-- 0.0----- 0.0------------
2019-06-17 19.7 25.7 12.0 10.4-- 3.0----- 0.0------------
2019-06-16 20.9 28.3 16.0 18.8-- 5.0----- 0.0------------
2019-06-15 23.6 30.1 16.0 14.7-- 6.0----- 0.8------------
2019-06-14 22.0 26.7 18.1 18.2-- 4.0----- 0.0------------
2019-06-13 23.5 30.8 20.1 19.2-- 5.3----- 15.1------------
2019-06-12 27.5 33.9 20.5 19.6-- 1.3----- 0.0------------
2019-06-11 27.1 34.3 20.1 18.7-- 0.0----- 0.0------------
2019-06-10 23.6 30.3 15.8 13.6-- 2.7----- 0.0------------
2019-06-09 19.1 25.3 10.9 7.2-- 0.0----- 0.0------------
2019-06-08 21.0 27.3 16.6 14.3-- 1.3----- 0.0------------
2019-06-07 21.8 29.3 15.8 14.2-- 0.0----- 0.0------------
2019-06-06 23.1 29.3 17.2 16.2-- 0.0----- 0.0------------
2019-06-05 23.3 29.8 10.9 14.2-- 0.0----- 0.0------------
2019-06-04 24.0 29.8 13.3 12.3-- 0.0----- 0.0------------
2019-06-03 22.8 28.8 14.9 12.2-- 0.0----- 0.0------------
2019-06-02 20.6 26.3 13.8 12.3-- 0.0----- 0.0------------
2019-06-01 19.3 24.6 12.4 9.9-- 2.7----- 0.0------------
2019-05-31 16.5 23.3 10.1 8.3-- 6.7----- 0.3------------
2019-05-30 13.0 18.6 4.9 2.0-- 0.0----- 0.0------------
2019-05-29 11.4 16.5 9.2 8.3-- 3.7----- 0.0------------
2019-05-28 15.4 21.3 12.4 11.8-- 8.0----- 11.3------------
2019-05-27 18.4 23.9 13.6 12.3-- 6.7----- 13.4------------
91.4 ms

 

Źródłem pochodzenia danych jest Instytut Meteorologii i Gospodarki Wodnej – Państwowy Instytut Badawczy. Dane Instytutu Meteorologii i Gospodarki Wodnej – Państwowego Instytutu Badawczego zostały przetworzone.

Dane źródłowe można odnaleźć na stronie https://dane.imgw.pl